Time;durP1;ratioP1;P1;durP2;ratioP2;P2;SDS_P1;SDS_P2;PMS_P1;PMS_P2;Temp;Humidity;BMP_temperature;BMP_pressure;BME280_temperature;BME280_humidity;BME280_pressure;Samples;Min_cycle;Max_cycle;Signal;HPM_P1;HPM_P2
2022/07/02 00:00:36;;;;;;;9.25;3.65;;;;;;;14.82;100.00;102047.25;5051619;28;20053;-47
2022/07/02 00:03:05;;;;;;;6.85;3.35;;;;;;;14.79;100.00;102048.31;5052473;28;20131;-46
2022/07/02 00:05:47;;;;;;;6.35;3.95;;;;;;;14.78;100.00;102051.03;5053515;28;20128;-47
2022/07/02 00:08:19;;;;;;;7.75;3.72;;;;;;;14.69;100.00;102055.13;5053731;28;20041;-52
2022/07/02 00:10:47;;;;;;;6.55;3.58;;;;;;;14.64;100.00;102054.56;5050758;28;20041;-47
2022/07/02 00:13:16;;;;;;;8.55;4.00;;;;;;;14.51;100.00;102057.97;5049917;28;20045;-48
2022/07/02 00:15:44;;;;;;;7.68;3.85;;;;;;;14.50;100.00;102055.41;5052212;28;20067;-53
2022/07/02 00:18:13;;;;;;;8.50;4.20;;;;;;;14.52;100.00;102053.53;5053069;28;20073;-45
2022/07/02 00:20:44;;;;;;;9.32;3.90;;;;;;;14.54;100.00;102060.41;5052027;28;20087;-46
2022/07/02 00:23:13;;;;;;;9.65;3.88;;;;;;;14.60;100.00;102048.59;5048750;28;20102;-46
2022/07/02 00:25:43;;;;;;;6.47;3.92;;;;;;;14.65;100.00;102057.13;5050568;28;20056;-46
2022/07/02 00:28:13;;;;;;;7.15;3.78;;;;;;;14.60;100.00;102053.91;5053118;28;20049;-48
2022/07/02 00:30:45;;;;;;;7.70;3.80;;;;;;;14.72;100.00;102046.16;5050062;28;20527;-48
2022/07/02 00:33:14;;;;;;;7.90;4.07;;;;;;;14.63;100.00;102050.22;5049763;28;20072;-55
2022/07/02 00:35:44;;;;;;;7.45;4.07;;;;;;;14.58;100.00;102055.78;5052983;28;20467;-48
2022/07/02 00:38:12;;;;;;;8.70;4.00;;;;;;;14.62;100.00;102053.81;5050859;28;20059;-49
2022/07/02 00:40:42;;;;;;;8.65;4.00;;;;;;;14.53;100.00;102056.09;5047828;28;20036;-47
2022/07/02 00:43:10;;;;;;;8.00;3.78;;;;;;;14.44;100.00;102047.84;5051727;28;20045;-54
2022/07/02 00:45:39;;;;;;;8.55;4.00;;;;;;;14.37;100.00;102048.25;5052636;28;20049;-55
2022/07/02 00:48:07;;;;;;;7.30;4.68;;;;;;;14.32;100.00;102042.38;5052238;28;20501;-53
2022/07/02 00:50:36;;;;;;;8.35;4.70;;;;;;;14.36;100.00;102046.53;5050568;28;20057;-51
2022/07/02 00:53:05;;;;;;;7.47;3.90;;;;;;;14.29;100.00;102052.28;5049250;28;20056;-47
2022/07/02 00:55:33;;;;;;;7.63;4.13;;;;;;;14.28;100.00;102040.03;5051779;28;20048;-50
2022/07/02 00:58:02;;;;;;;7.97;4.07;;;;;;;14.29;100.00;102042.56;5052516;28;20102;-54
2022/07/02 01:00:30;;;;;;;7.43;4.00;;;;;;;14.22;100.00;102041.25;5052560;28;20095;-55
2022/07/02 01:03:00;;;;;;;9.45;4.28;;;;;;;14.17;100.00;102045.97;5051147;28;20049;-48
2022/07/02 01:05:29;;;;;;;5.78;3.80;;;;;;;14.11;100.00;102033.97;5052443;28;20052;-51
2022/07/02 01:10:48;;;;;;;9.00;4.47;;;;;;;14.26;100.00;102037.47;5052304;28;20049;-48
2022/07/02 01:13:17;;;;;;;8.30;4.10;;;;;;;14.19;100.00;102028.19;5052453;28;20098;-51
2022/07/02 01:15:46;;;;;;;8.00;4.20;;;;;;;14.16;100.00;102033.69;5052266;28;20057;-46
2022/07/02 01:18:17;;;;;;;8.57;4.32;;;;;;;14.09;100.00;102027.09;5049843;28;20135;-47
2022/07/02 01:20:46;;;;;;;8.43;4.03;;;;;;;14.13;100.00;102025.94;5049531;28;20468;-47
2022/07/02 01:23:15;;;;;;;7.47;4.25;;;;;;;14.08;100.00;102023.56;5052419;28;20114;-52
2022/07/02 01:25:50;;;;;;;7.43;4.03;;;;;;;14.02;100.00;102024.78;5052149;28;20045;-53
2022/07/02 01:28:18;;;;;;;7.82;4.93;;;;;;;14.08;100.00;102018.28;5052151;28;20056;-53
2022/07/02 01:30:48;;;;;;;7.45;4.38;;;;;;;13.92;100.00;102020.16;5049678;28;20057;-51
2022/07/02 01:33:16;;;;;;;7.90;3.92;;;;;;;13.98;100.00;102017.16;5048493;28;20056;-44
2022/07/02 01:35:44;;;;;;;8.77;4.53;;;;;;;13.82;100.00;102011.94;5052049;28;20049;-51
2022/07/02 01:38:12;;;;;;;9.98;4.63;;;;;;;13.71;100.00;102015.22;5052132;28;20087;-45
2022/07/02 01:40:41;;;;;;;7.60;4.07;;;;;;;13.71;100.00;102014.38;5048888;28;20103;-49
2022/07/02 01:43:09;;;;;;;9.90;4.60;;;;;;;13.74;100.00;102019.47;5048820;28;20041;-48
2022/07/02 01:45:37;;;;;;;8.15;5.05;;;;;;;13.74;100.00;102025.59;5050932;28;20060;-48
2022/07/02 01:48:06;;;;;;;11.48;4.72;;;;;;;13.75;100.00;102026.47;5051032;28;20538;-50
2022/07/02 01:50:37;;;;;;;9.68;4.30;;;;;;;13.82;100.00;102022.50;5051611;28;20120;-50
2022/07/02 01:53:05;;;;;;;7.85;4.53;;;;;;;13.65;100.00;102029.66;5051795;28;20411;-45
2022/07/02 01:55:33;;;;;;;7.80;4.47;;;;;;;13.66;100.00;102025.22;5048650;28;20079;-46
2022/07/02 01:58:03;;;;;;;8.50;4.70;;;;;;;13.63;100.00;102030.69;5048824;28;20534;-53
2022/07/02 02:00:31;;;;;;;9.75;4.78;;;;;;;13.64;100.00;102029.75;5053572;28;20087;-48
2022/07/02 02:02:59;;;;;;;9.90;5.10;;;;;;;13.62;100.00;102034.28;5055892;28;20041;-48
2022/07/02 02:05:28;;;;;;;11.73;4.90;;;;;;;13.60;100.00;102034.38;5055963;28;20072;-53
2022/07/02 02:07:56;;;;;;;12.07;4.78;;;;;;;13.51;100.00;102033.13;5055686;28;20092;-54
2022/07/02 02:10:25;;;;;;;9.55;4.68;;;;;;;13.53;100.00;102027.75;5055429;28;20106;-53
2022/07/02 02:12:52;;;;;;;8.75;4.53;;;;;;;13.47;100.00;102030.75;5055699;28;20080;-48
2022/07/02 02:15:22;;;;;;;8.15;4.65;;;;;;;13.42;100.00;102028.38;5054788;28;20053;-52
2022/07/02 02:17:50;;;;;;;8.15;4.82;;;;;;;13.40;100.00;102030.25;5051534;28;20103;-51
2022/07/02 02:20:19;;;;;;;7.60;4.55;;;;;;;13.44;100.00;102025.66;5053257;28;20488;-54
2022/07/02 02:22:47;;;;;;;6.95;4.63;;;;;;;13.36;100.00;102028.72;5055211;28;20099;-51
2022/07/02 02:25:16;;;;;;;10.25;5.07;;;;;;;13.35;100.00;102030.53;5055425;28;20052;-51
2022/07/02 02:27:44;;;;;;;11.88;4.47;;;;;;;13.26;100.00;102025.75;5055280;28;20098;-54
2022/07/02 02:30:14;;;;;;;10.43;5.10;;;;;;;13.39;100.00;102022.41;5055263;28;20045;-45
2022/07/02 02:32:43;;;;;;;11.40;4.72;;;;;;;13.32;100.00;102021.88;5055365;28;20083;-46
2022/07/02 02:35:11;;;;;;;9.52;4.38;;;;;;;13.34;100.00;102015.56;5055312;28;20053;-48
2022/07/02 02:37:39;;;;;;;8.15;4.68;;;;;;;13.28;100.00;102018.59;5054941;28;20048;-49
2022/07/02 02:40:08;;;;;;;8.35;4.47;;;;;;;13.32;100.00;102017.47;5055238;28;20077;-46
2022/07/02 02:42:36;;;;;;;7.72;4.38;;;;;;;13.23;100.00;102020.63;5052798;28;20056;-55
2022/07/02 02:45:05;;;;;;;9.18;4.50;;;;;;;13.28;100.00;102021.22;5051765;28;20103;-46
2022/07/02 02:47:33;;;;;;;9.05;4.60;;;;;;;13.19;100.00;102017.31;5053272;28;20393;-52
2022/07/02 02:50:03;;;;;;;10.02;4.95;;;;;;;13.19;100.00;102022.59;5055207;28;20048;-53
2022/07/02 02:52:31;;;;;;;8.60;4.80;;;;;;;13.18;100.00;102030.63;5054826;28;20041;-50
2022/07/02 02:55:00;;;;;;;9.38;4.90;;;;;;;13.00;100.00;102038.63;5050268;28;20135;-46
2022/07/02 02:57:29;;;;;;;6.95;4.68;;;;;;;13.03;100.00;102037.63;5051629;28;20136;-46
2022/07/02 02:59:57;;;;;;;11.32;5.15;;;;;;;13.09;100.00;102037.28;5054346;28;20094;-48
2022/07/02 03:02:25;;;;;;;7.20;4.85;;;;;;;13.15;100.00;102026.34;5054216;28;20072;-53
2022/07/02 03:04:53;;;;;;;10.10;5.10;;;;;;;13.08;100.00;102034.72;5050692;28;20049;-53
2022/07/02 03:07:22;;;;;;;7.40;5.40;;;;;;;13.09;100.00;102039.06;5050639;28;20044;-49
2022/07/02 03:09:50;;;;;;;9.02;5.28;;;;;;;12.99;100.00;102036.97;5053909;28;20052;-53
2022/07/02 03:12:24;;;;;;;9.40;5.40;;;;;;;12.92;100.00;102030.28;5053897;28;20119;-47
2022/07/02 03:14:52;;;;;;;7.72;5.63;;;;;;;12.89;100.00;102037.56;5054243;28;20072;-48
2022/07/02 03:17:20;;;;;;;11.88;5.40;;;;;;;12.88;100.00;102039.31;5051333;28;20095;-47
2022/07/02 03:19:49;;;;;;;10.10;5.53;;;;;;;12.98;100.00;102043.16;5051649;28;20056;-46
2022/07/02 03:22:17;;;;;;;10.57;5.65;;;;;;;12.92;100.00;102040.03;5054208;28;20071;-45
2022/07/02 03:24:46;;;;;;;11.27;5.85;;;;;;;12.99;100.00;102036.09;5054265;28;20111;-52
2022/07/02 03:27:14;;;;;;;9.05;5.53;;;;;;;12.94;100.00;102046.91;5054294;28;20106;-51
2022/07/02 03:29:42;;;;;;;9.07;5.70;;;;;;;12.87;100.00;102042.94;5052131;28;20045;-55
2022/07/02 03:32:10;;;;;;;7.90;5.10;;;;;;;12.89;100.00;102050.75;5050384;28;20048;-53
2022/07/02 03:34:38;;;;;;;8.80;5.68;;;;;;;12.91;100.00;102049.75;5054125;28;20060;-46
2022/07/02 03:37:07;;;;;;;9.32;5.50;;;;;;;12.95;100.00;102053.91;5054146;28;20496;-44
2022/07/02 03:39:35;;;;;;;8.07;5.97;;;;;;;12.88;100.00;102064.88;5054160;28;20067;-50
2022/07/02 03:42:04;;;;;;;9.70;5.90;;;;;;;12.87;100.00;102063.19;5054140;28;20065;-50
2022/07/02 03:44:32;;;;;;;8.85;5.53;;;;;;;12.92;100.00;102071.69;5053900;28;20044;-47
2022/07/02 03:47:00;;;;;;;8.27;5.97;;;;;;;12.96;100.00;102058.22;5053887;28;20048;-46
2022/07/02 03:49:28;;;;;;;8.57;5.38;;;;;;;13.01;100.00;102061.47;5053455;28;20242;-47
2022/07/02 03:51:56;;;;;;;10.98;5.43;;;;;;;13.11;100.00;102061.81;5053827;28;20045;-52
2022/07/02 03:54:24;;;;;;;8.68;6.15;;;;;;;13.02;100.00;102057.91;5053819;28;20037;-50
2022/07/02 03:56:52;;;;;;;8.55;5.60;;;;;;;13.04;100.00;102059.63;5049443;28;20071;-54
2022/07/02 03:59:22;;;;;;;7.25;5.32;;;;;;;13.20;100.00;102063.09;5050033;28;20127;-49
2022/07/02 04:01:50;;;;;;;8.90;6.07;;;;;;;13.13;100.00;102062.59;5053646;28;20051;-46
2022/07/02 04:04:18;;;;;;;10.68;6.20;;;;;;;13.20;100.00;102071.00;5053747;28;20484;-48
2022/07/02 04:06:46;;;;;;;10.23;6.50;;;;;;;13.18;100.00;102068.47;5053497;28;20102;-55
2022/07/02 04:09:14;;;;;;;9.35;5.57;;;;;;;13.26;100.00;102080.38;5053441;28;20422;-53
2022/07/02 04:11:42;;;;;;;10.00;6.10;;;;;;;13.32;100.00;102075.59;5053486;28;20151;-49
2022/07/02 04:14:10;;;;;;;11.20;6.20;;;;;;;13.44;100.00;102070.56;5053401;28;20053;-51
2022/07/02 04:16:40;;;;;;;8.18;5.75;;;;;;;13.49;100.00;102079.09;5053268;28;20067;-54
2022/07/02 04:19:09;;;;;;;10.18;6.25;;;;;;;13.51;100.00;102080.69;5051633;28;20052;-51
2022/07/02 04:21:41;;;;;;;9.98;6.18;;;;;;;13.49;100.00;102072.00;5049423;28;20578;-54
2022/07/02 04:24:09;;;;;;;9.50;6.10;;;;;;;13.57;100.00;102068.91;5052106;28;20076;-47
2022/07/02 04:26:37;;;;;;;9.88;5.97;;;;;;;13.54;100.00;102069.09;5049177;28;20068;-52
2022/07/02 04:29:05;;;;;;;13.75;6.70;;;;;;;13.47;100.00;102063.31;5050629;28;20041;-51
2022/07/02 04:31:33;;;;;;;9.95;6.30;;;;;;;13.42;100.00;102065.38;5068226;28;20049;-50
2022/07/02 04:34:03;;;;;;;10.20;6.30;;;;;;;13.43;100.00;102077.66;5053065;28;20045;-55
2022/07/02 04:36:33;;;;;;;9.93;6.40;;;;;;;13.48;100.00;102072.09;5053035;28;20049;-44
2022/07/02 04:39:02;;;;;;;10.93;5.88;;;;;;;13.52;100.00;102066.56;5052813;28;20045;-51
2022/07/02 04:41:31;;;;;;;10.00;6.45;;;;;;;13.71;100.00;102076.03;5052758;28;20045;-54
2022/07/02 04:43:59;;;;;;;9.73;6.30;;;;;;;13.67;100.00;102074.50;5052593;28;20055;-55
2022/07/02 04:46:27;;;;;;;9.00;6.40;;;;;;;13.68;100.00;102070.94;5052848;28;20085;-49
2022/07/02 04:48:55;;;;;;;11.27;7.15;;;;;;;13.65;100.00;102073.75;5052465;28;20053;-51
2022/07/02 04:51:24;;;;;;;12.65;7.20;;;;;;;13.74;100.00;102073.19;5049173;28;20415;-49
2022/07/02 04:53:57;;;;;;;13.40;7.13;;;;;;;13.90;100.00;102069.66;5050267;28;20052;-50
2022/07/02 04:56:27;;;;;;;10.35;6.43;;;;;;;13.94;100.00;102071.19;5051559;28;20053;-48
2022/07/02 04:58:55;;;;;;;9.98;7.07;;;;;;;14.10;100.00;102071.94;5049497;28;20102;-53
2022/07/02 05:01:24;;;;;;;11.70;7.55;;;;;;;14.20;100.00;102074.88;5051472;28;20041;-50
2022/07/02 05:03:52;;;;;;;12.32;6.82;;;;;;;14.27;100.00;102070.06;5048340;28;20504;-55
2022/07/02 05:06:21;;;;;;;11.02;7.18;;;;;;;14.24;100.00;102072.91;5049320;28;20036;-49
2022/07/02 05:08:52;;;;;;;12.48;6.13;;;;;;;14.31;100.00;102077.72;5050895;28;20045;-53
2022/07/02 05:11:20;;;;;;;13.95;6.07;;;;;;;14.36;100.00;102078.28;5046966;28;20368;-55
2022/07/02 05:13:48;;;;;;;11.27;6.28;;;;;;;14.43;100.00;102076.13;5050610;28;20500;-53
2022/07/02 05:16:17;;;;;;;10.10;6.15;;;;;;;14.53;100.00;102074.63;5052218;28;20057;-47
2022/07/02 05:18:45;;;;;;;11.63;5.68;;;;;;;14.60;100.00;102080.38;5052184;28;20045;-48
2022/07/02 05:21:13;;;;;;;12.18;6.45;;;;;;;14.67;100.00;102078.19;5052376;28;20077;-52
2022/07/02 05:23:41;;;;;;;9.20;6.03;;;;;;;14.82;100.00;102084.31;5050963;28;20049;-44
2022/07/02 05:26:11;;;;;;;11.60;6.55;;;;;;;14.95;100.00;102081.75;5050849;28;20431;-54
2022/07/02 05:28:39;;;;;;;9.65;5.60;;;;;;;15.08;100.00;102071.19;5052021;28;20499;-53
2022/07/02 05:31:10;;;;;;;12.20;6.07;;;;;;;15.24;100.00;102079.84;5051995;28;20055;-53
2022/07/02 05:33:38;;;;;;;10.38;6.15;;;;;;;15.36;100.00;102072.91;5050702;28;20086;-51
2022/07/02 05:36:06;;;;;;;9.38;4.70;;;;;;;15.48;100.00;102068.59;5048326;28;20455;-49
2022/07/02 05:38:34;;;;;;;8.88;4.75;;;;;;;15.55;100.00;102070.72;5049969;28;20044;-47
2022/07/02 05:41:02;;;;;;;9.63;4.43;;;;;;;15.66;100.00;102074.47;5052144;28;20102;-53
2022/07/02 05:43:31;;;;;;;8.27;4.30;;;;;;;15.76;100.00;102080.00;5051582;28;20033;-52
2022/07/02 05:46:00;;;;;;;9.05;4.30;;;;;;;15.88;99.95;102081.84;5051883;28;20041;-48
2022/07/02 05:48:28;;;;;;;9.73;4.20;;;;;;;16.00;97.80;102082.81;5051728;28;20403;-47
2022/07/02 05:50:56;;;;;;;7.65;3.67;;;;;;;16.10;96.38;102078.59;5052025;28;20111;-50
2022/07/02 05:53:24;;;;;;;10.30;4.20;;;;;;;16.18;95.27;102086.00;5048240;28;20053;-47
2022/07/02 05:55:52;;;;;;;10.40;4.20;;;;;;;16.31;96.55;102084.19;5046768;28;20057;-55
2022/07/02 05:58:20;;;;;;;7.35;3.50;;;;;;;16.48;94.32;102095.44;5051723;28;20053;-53
2022/07/02 06:00:50;;;;;;;7.38;3.30;;;;;;;16.64;94.85;102098.69;5051785;28;20422;-53
2022/07/02 06:03:18;;;;;;;6.85;2.92;;;;;;;16.81;93.28;102104.59;5051938;28;20072;-44
2022/07/02 06:08:31;;;;;;;6.13;2.92;;;;;;;17.06;89.90;102112.53;5048451;28;20063;-47
2022/07/02 06:10:59;;;;;;;5.43;2.45;;;;;;;17.27;84.09;102103.09;5047285;28;20049;-55
2022/07/02 06:13:27;;;;;;;6.55;2.70;;;;;;;17.39;82.75;102103.03;5051126;28;20049;-47
2022/07/02 06:15:57;;;;;;;6.95;2.38;;;;;;;17.62;84.21;102104.97;5051514;28;20081;-45
2022/07/02 06:18:25;;;;;;;5.70;2.35;;;;;;;17.69;81.62;102101.69;5051517;28;20399;-56
2022/07/02 06:20:53;;;;;;;8.07;2.40;;;;;;;17.68;79.52;102105.34;5051313;28;20120;-46
2022/07/02 06:23:21;;;;;;;6.32;2.40;;;;;;;17.82;79.71;102106.09;5048377;28;20038;-56
2022/07/02 06:25:49;;;;;;;9.35;2.70;;;;;;;17.89;81.02;102105.50;5047071;28;20521;-55
2022/07/02 06:28:18;;;;;;;4.82;1.90;;;;;;;18.04;75.60;102106.19;5049005;28;20555;-54
2022/07/02 06:30:46;;;;;;;5.93;1.55;;;;;;;18.18;72.71;102109.59;5047756;28;20075;-48
2022/07/02 06:33:15;;;;;;;2.17;1.17;;;;;;;18.31;68.61;102113.00;5051154;28;20041;-58
2022/07/02 06:35:43;;;;;;;2.75;1.17;;;;;;;18.56;71.56;102114.56;5050867;28;20057;-55
2022/07/02 06:38:12;;;;;;;6.55;1.98;;;;;;;18.77;73.19;102120.97;5051152;28;20033;-58
2022/07/02 06:40:40;;;;;;;5.20;1.77;;;;;;;18.84;71.61;102116.84;5050919;28;20571;-54
2022/07/02 06:43:08;;;;;;;4.35;1.48;;;;;;;19.07;72.24;102115.00;5050828;28;20048;-44
2022/07/02 06:45:36;;;;;;;3.92;1.75;;;;;;;19.12;68.07;102112.00;5049004;28;20098;-50
2022/07/02 06:48:05;;;;;;;2.90;1.20;;;;;;;19.22;65.66;102107.56;5050508;28;20103;-47
2022/07/02 06:50:34;;;;;;;4.97;1.73;;;;;;;19.35;63.24;102110.09;5053720;28;20527;-47
2022/07/02 06:53:02;;;;;;;2.97;1.05;;;;;;;19.54;65.19;102110.25;5054533;28;20492;-52
2022/07/02 06:55:30;;;;;;;7.50;1.40;;;;;;;19.80;65.28;102117.06;5054232;28;20069;-48
2022/07/02 06:57:59;;;;;;;4.55;1.40;;;;;;;20.00;60.16;102110.03;5054358;28;20049;-54
2022/07/02 07:00:27;;;;;;;3.95;1.40;;;;;;;20.20;61.36;102114.50;5054114;28;20520;-46
2022/07/02 07:02:55;;;;;;;4.47;1.48;;;;;;;20.33;63.39;102116.97;5054278;28;20075;-53
2022/07/02 07:05:23;;;;;;;2.75;1.33;;;;;;;20.49;63.30;102116.47;5053964;28;20045;-49
2022/07/02 07:07:52;;;;;;;5.55;2.00;;;;;;;20.59;63.11;102121.84;5054503;28;20044;-49
2022/07/02 07:10:20;;;;;;;5.75;1.73;;;;;;;20.66;60.61;102116.81;5054688;28;20045;-47
2022/07/02 07:12:49;;;;;;;4.38;1.40;;;;;;;20.62;58.98;102124.25;5051738;28;20550;-53
2022/07/02 07:15:17;;;;;;;3.22;1.20;;;;;;;20.73;57.94;102123.34;5051249;28;20067;-46
2022/07/02 07:17:45;;;;;;;3.88;1.60;;;;;;;20.60;59.98;102127.06;5054653;28;20071;-55
2022/07/02 07:20:19;;;;;;;5.80;1.70;;;;;;;20.75;59.10;102130.25;5054502;28;20045;-54
2022/07/02 07:22:47;;;;;;;6.60;1.80;;;;;;;21.05;59.92;102125.81;5054516;28;20044;-56
2022/07/02 07:25:16;;;;;;;6.32;1.65;;;;;;;21.16;58.89;102126.66;5054434;28;20079;-43
2022/07/02 07:27:44;;;;;;;4.95;1.30;;;;;;;21.39;58.43;102127.25;5054178;28;20052;-55
2022/07/02 07:30:13;;;;;;;4.47;1.10;;;;;;;21.67;56.36;102119.41;5054244;28;20041;-45
2022/07/02 07:32:41;;;;;;;5.82;1.15;;;;;;;21.65;55.19;102121.34;5053974;28;20132;-54
2022/07/02 07:35:10;;;;;;;2.28;0.98;;;;;;;21.74;58.65;102125.88;5054100;28;20048;-49
2022/07/02 07:37:38;;;;;;;4.07;1.00;;;;;;;21.85;54.16;102124.88;5069491;28;20059;-45
2022/07/02 07:40:11;;;;;;;4.65;1.02;;;;;;;21.81;53.60;102120.78;5053918;28;20053;-54
2022/07/02 07:42:40;;;;;;;4.15;1.27;;;;;;;22.12;54.38;102121.44;5053169;28;20049;-49
2022/07/02 07:45:09;;;;;;;2.97;0.80;;;;;;;22.20;52.67;102120.72;5048957;28;20068;-49
2022/07/02 07:47:37;;;;;;;4.40;0.93;;;;;;;22.34;53.85;102117.56;5051762;28;20049;-48
2022/07/02 07:50:07;;;;;;;2.72;0.57;;;;;;;22.49;51.14;102109.88;5053667;28;20045;-56
2022/07/02 07:52:35;;;;;;;4.55;0.90;;;;;;;22.36;51.29;102118.28;5053878;28;20110;-45
2022/07/02 07:55:03;;;;;;;3.67;0.80;;;;;;;22.30;48.84;102118.81;5052173;28;20132;-45
2022/07/02 07:57:33;;;;;;;2.47;0.82;;;;;;;22.63;51.97;102116.59;5049592;28;20509;-54
2022/07/02 08:00:03;;;;;;;4.90;0.85;;;;;;;22.64;47.87;102112.09;5052073;28;20059;-48
2022/07/02 08:02:31;;;;;;;3.53;0.75;;;;;;;22.92;47.50;102113.75;5053731;28;20084;-46
2022/07/02 08:05:06;;;;;;;3.40;0.80;;;;;;;23.12;47.54;102106.47;5053748;28;20041;-46
2022/07/02 08:07:36;;;;;;;3.58;0.73;;;;;;;22.93;47.34;102109.22;5053495;28;20114;-56
2022/07/02 08:10:06;;;;;;;4.03;0.80;;;;;;;22.96;47.38;102098.22;5053757;28;20052;-50
2022/07/02 08:12:34;;;;;;;3.45;0.90;;;;;;;23.16;47.54;102098.94;5051626;28;20124;-53
2022/07/02 08:15:04;;;;;;;4.50;0.77;;;;;;;23.22;46.89;102094.78;5049931;28;20098;-54
2022/07/02 08:17:32;;;;;;;3.20;0.82;;;;;;;23.52;49.42;102092.69;5051784;28;20049;-55
2022/07/02 08:20:02;;;;;;;4.13;0.80;;;;;;;23.62;49.07;102094.28;5052977;28;20057;-53
2022/07/02 08:22:30;;;;;;;2.97;0.90;;;;;;;23.89;45.81;102083.63;5052649;28;20072;-56
2022/07/02 08:24:58;;;;;;;2.80;0.70;;;;;;;24.15;47.56;102083.59;5052920;28;20480;-48
2022/07/02 08:27:26;;;;;;;4.75;1.00;;;;;;;24.11;47.22;102083.06;5052837;28;20396;-49
2022/07/02 08:29:54;;;;;;;3.50;0.90;;;;;;;24.02;45.57;102083.19;5052511;28;20112;-56
2022/07/02 08:32:24;;;;;;;6.85;1.00;;;;;;;23.58;46.09;102097.47;5052659;28;20045;-49
2022/07/02 08:34:52;;;;;;;3.70;1.00;;;;;;;23.67;45.56;102093.00;5051492;28;20040;-47
2022/07/02 08:37:22;;;;;;;4.28;0.80;;;;;;;23.81;46.02;102095.13;5048704;28;20124;-47
2022/07/02 08:39:50;;;;;;;2.92;0.70;;;;;;;24.02;46.71;102092.06;5050469;28;20049;-45
2022/07/02 08:42:26;;;;;;;2.97;0.80;;;;;;;23.91;46.99;102095.03;5052572;28;20119;-55
2022/07/02 08:44:54;;;;;;;5.65;0.90;;;;;;;23.90;46.58;102087.97;5052425;28;20041;-48
2022/07/02 08:47:24;;;;;;;3.05;0.80;;;;;;;23.86;44.76;102086.56;5052222;28;20570;-55
2022/07/02 08:49:55;;;;;;;3.58;0.88;;;;;;;24.41;48.06;102088.09;5052201;28;20053;-47
2022/07/02 08:52:24;;;;;;;5.80;1.13;;;;;;;24.05;45.96;102083.72;5052331;28;20083;-54
2022/07/02 08:54:53;;;;;;;6.97;1.08;;;;;;;24.63;44.95;102084.00;5049258;28;20045;-54
2022/07/02 08:57:22;;;;;;;6.60;1.00;;;;;;;24.57;43.86;102082.78;5047862;28;20511;-48
2022/07/02 08:59:51;;;;;;;4.40;0.88;;;;;;;24.78;45.24;102076.16;5052364;28;20056;-54
2022/07/02 09:02:19;;;;;;;4.18;0.90;;;;;;;24.88;45.21;102079.53;5052499;28;20103;-55
2022/07/02 09:04:51;;;;;;;4.07;1.20;;;;;;;24.82;43.80;102074.81;5052371;28;20381;-48
2022/07/02 09:07:20;;;;;;;2.65;0.85;;;;;;;24.91;43.19;102081.88;5052527;28;20053;-55
2022/07/02 09:09:49;;;;;;;2.47;0.80;;;;;;;24.96;43.93;102079.56;5052079;28;20404;-51
2022/07/02 09:12:17;;;;;;;4.13;0.90;;;;;;;25.29;43.35;102067.97;5052635;28;20122;-55
2022/07/02 09:14:45;;;;;;;3.78;0.90;;;;;;;25.43;45.10;102067.31;5051287;28;20048;-45
2022/07/02 09:17:14;;;;;;;4.93;1.00;;;;;;;25.54;43.24;102062.63;5049274;28;20041;-54
2022/07/02 09:19:42;;;;;;;3.40;0.95;;;;;;;25.81;42.36;102072.16;5050367;28;20095;-54
2022/07/02 09:22:12;;;;;;;4.18;0.82;;;;;;;25.64;39.80;102061.41;5051960;28;20052;-54
2022/07/02 09:24:42;;;;;;;3.17;1.00;;;;;;;25.71;41.46;102060.72;5052255;28;20041;-56
2022/07/02 09:27:14;;;;;;;3.72;1.27;;;;;;;25.78;41.30;102062.56;5052267;28;20091;-47
2022/07/02 09:29:43;;;;;;;7.93;1.20;;;;;;;25.47;42.16;102059.75;5067414;28;20540;-55
2022/07/02 09:32:12;;;;;;;4.03;0.70;;;;;;;25.80;42.75;102057.00;5052130;28;20057;-55
2022/07/02 09:34:43;;;;;;;5.07;1.30;;;;;;;25.63;41.61;102053.50;5049021;28;20140;-53
2022/07/02 09:37:17;;;;;;;4.72;1.05;;;;;;;25.84;41.86;102049.41;5048411;28;20108;-50
2022/07/02 09:39:47;;;;;;;2.58;1.00;;;;;;;26.00;40.75;102046.69;5051969;28;20037;-54
2022/07/02 09:42:24;;;;;;;4.93;1.00;;;;;;;25.90;40.91;102054.94;5052137;28;20191;-55
2022/07/02 09:44:53;;;;;;;5.15;0.85;;;;;;;25.62;41.46;102054.53;5052280;28;20491;-54
2022/07/02 09:47:32;;;;;;;5.43;1.05;;;;;;;24.91;42.72;102055.00;5048625;28;20083;-54
2022/07/02 09:50:04;;;;;;;3.70;0.82;;;;;;;24.90;42.62;102047.91;5049160;28;20049;-47
2022/07/02 09:52:34;;;;;;;2.88;0.93;;;;;;;25.35;42.80;102048.47;5052166;28;20456;-46
2022/07/02 09:55:02;;;;;;;5.65;0.80;;;;;;;25.99;43.77;102050.41;5048294;28;20045;-47
2022/07/02 09:57:31;;;;;;;4.22;0.85;;;;;;;26.51;42.16;102045.50;5048555;28;20144;-49
2022/07/02 10:00:06;;;;;;;4.18;1.02;;;;;;;27.11;41.25;102041.25;5051378;28;20048;-47
2022/07/02 10:02:37;;;;;;;4.43;0.90;;;;;;;27.18;40.55;102044.06;5051682;28;20107;-50
2022/07/02 10:05:07;;;;;;;4.03;0.88;;;;;;;27.26;39.04;102041.28;5051830;28;20049;-47
2022/07/02 10:07:36;;;;;;;5.68;0.90;;;;;;;27.23;39.18;102047.03;5049482;28;20141;-46
2022/07/02 10:10:05;;;;;;;3.45;1.00;;;;;;;26.72;38.52;102045.72;5046662;28;20763;-45
2022/07/02 10:12:34;;;;;;;4.60;1.08;;;;;;;26.76;39.74;102043.50;5049943;28;20057;-48
2022/07/02 10:15:05;;;;;;;3.15;0.90;;;;;;;26.91;40.51;102038.19;5051679;28;20488;-49
2022/07/02 10:17:35;;;;;;;9.50;1.40;;;;;;;27.21;39.46;102035.59;5051874;28;20057;-49
2022/07/02 10:20:04;;;;;;;4.63;1.00;;;;;;;27.24;38.96;102024.41;5051809;28;20099;-49
2022/07/02 10:22:33;;;;;;;3.60;0.93;;;;;;;27.64;39.31;102017.81;5052697;28;20055;-48
2022/07/02 10:25:04;;;;;;;2.97;0.77;;;;;;;27.30;37.48;102029.09;5050613;28;20798;-54
2022/07/02 10:27:33;;;;;;;4.30;0.80;;;;;;;27.22;37.72;102024.59;5055195;28;20048;-47
2022/07/02 10:30:01;;;;;;;3.53;1.10;;;;;;;26.59;38.70;102023.88;5055528;28;20106;-55
2022/07/02 10:32:36;;;;;;;2.85;0.80;;;;;;;27.31;38.90;102017.28;5055288;28;20037;-55
2022/07/02 10:35:10;;;;;;;3.10;0.80;;;;;;;27.81;38.46;102014.94;5055327;28;20455;-56
2022/07/02 10:37:39;;;;;;;3.60;0.90;;;;;;;27.85;37.50;102010.00;5055315;28;20404;-51
2022/07/02 10:40:11;;;;;;;4.38;1.20;;;;;;;28.05;37.36;102004.91;5055548;28;20049;-50
2022/07/02 10:42:40;;;;;;;5.07;0.95;;;;;;;27.49;37.85;102012.41;5055010;28;20083;-47
2022/07/02 10:45:14;;;;;;;2.60;0.82;;;;;;;27.66;38.02;102006.81;5055071;28;20107;-54
2022/07/02 10:47:59;;;;;;;4.03;1.00;;;;;;;27.73;37.21;101996.97;5051730;28;20388;-47
2022/07/02 10:50:39;;;;;;;3.83;1.00;;;;;;;27.32;37.24;102000.91;5052106;28;20538;-51
2022/07/02 10:53:08;;;;;;;5.20;1.30;;;;;;;27.64;36.05;101987.28;5054989;28;20040;-52
2022/07/02 10:55:39;;;;;;;4.25;0.98;;;;;;;27.78;36.80;101994.53;5055154;28;20496;-47
2022/07/02 10:58:09;;;;;;;3.67;0.90;;;;;;;27.87;37.35;101997.13;5054811;28;20114;-52
2022/07/02 11:00:38;;;;;;;28.48;4.47;;;;;;;28.01;35.91;101999.03;5070089;28;20136;-47
2022/07/02 11:03:14;;;;;;;6.85;1.38;;;;;;;27.77;36.03;101987.47;5053579;28;20087;-46
2022/07/02 11:05:54;;;;;;;3.75;0.85;;;;;;;27.68;35.71;101988.56;5054850;28;20439;-45
2022/07/02 11:08:40;;;;;;;;;;;;;;;27.95;36.45;101995.19;5052550;28;20068;-53
2022/07/02 11:11:12;;;;;;;3.92;1.17;;;;;;;28.17;36.35;101996.09;5048267;28;20346;-55
2022/07/02 11:13:44;;;;;;;4.45;1.00;;;;;;;27.64;36.22;101987.28;5054206;28;20091;-53
2022/07/02 11:16:20;;;;;;;;;;;;;;;27.43;35.93;101991.53;5052980;28;20056;-49
2022/07/02 11:18:49;;;;;;;2.63;0.90;;;;;;;27.70;36.22;101988.38;5049246;28;19974;-52
2022/07/02 11:21:18;;;;;;;3.05;0.80;;;;;;;27.85;35.92;101983.81;5053972;28;20053;-54
2022/07/02 11:23:46;;;;;;;3.72;0.85;;;;;;;28.16;35.17;101980.06;5054482;28;20052;-55
2022/07/02 11:26:20;;;;;;;3.42;0.90;;;;;;;28.39;35.57;101979.91;5054472;28;20240;-55
2022/07/02 11:28:48;;;;;;;4.72;0.93;;;;;;;28.66;35.93;101982.94;5054382;28;20049;-49
2022/07/02 11:31:17;;;;;;;4.50;0.93;;;;;;;28.43;33.80;101969.56;5051177;28;20399;-44
2022/07/02 11:33:48;;;;;;;4.05;0.80;;;;;;;28.65;35.28;101965.84;5050302;28;20056;-54